createdAt,value
2019-02-06T00:00:44.555Z,28.37
2019-02-06T00:03:18.665Z,28.60
2019-02-06T00:05:47.966Z,26.40
2019-02-06T00:08:17.235Z,28.17
2019-02-06T00:10:46.493Z,27.30
2019-02-06T00:13:16.008Z,30.50
2019-02-06T00:15:45.336Z,25.60
2019-02-06T00:18:14.991Z,26.80
2019-02-06T00:20:44.258Z,27.53
2019-02-06T00:23:13.545Z,27.57
2019-02-06T00:25:43.328Z,26.83
2019-02-06T00:28:12.632Z,27.83
2019-02-06T00:30:41.979Z,27.83
2019-02-06T00:33:11.554Z,28.50
2019-02-06T00:35:40.839Z,26.83
2019-02-06T00:38:10.092Z,28.10
2019-02-06T00:40:39.369Z,26.13
2019-02-06T00:43:08.646Z,28.63
2019-02-06T00:45:37.900Z,29.07
2019-02-06T00:48:07.178Z,26.47
2019-02-06T00:50:36.467Z,28.00
2019-02-06T00:53:05.946Z,27.13
2019-02-06T00:55:35.205Z,29.57
2019-02-06T00:58:04.808Z,27.53
2019-02-06T01:00:34.383Z,28.50
2019-02-06T01:03:04.178Z,27.03
2019-02-06T01:05:38.560Z,27.87
2019-02-06T01:08:04.621Z,26.83
2019-02-06T01:10:33.898Z,29.60
2019-02-06T01:13:03.165Z,29.37
2019-02-06T01:15:32.464Z,29.30
2019-02-06T01:18:01.997Z,28.03
2019-02-06T01:20:31.281Z,29.30
2019-02-06T01:23:00.545Z,30.13
2019-02-06T01:25:29.805Z,30.57
2019-02-06T01:27:59.415Z,29.70
2019-02-06T01:30:31.622Z,28.60
2019-02-06T01:33:01.101Z,28.57
2019-02-06T01:35:30.407Z,27.83
2019-02-06T01:37:59.723Z,30.20
2019-02-06T01:40:28.990Z,29.93
2019-02-06T01:42:58.273Z,30.27
2019-02-06T01:45:27.777Z,29.97
2019-02-06T01:47:57.421Z,30.07
2019-02-06T01:50:26.921Z,30.10
2019-02-06T01:52:56.299Z,28.87
2019-02-06T01:55:25.575Z,26.60
2019-02-06T01:57:54.832Z,27.93
2019-02-06T02:00:24.751Z,26.10
2019-02-06T02:02:54.477Z,27.50
2019-02-06T02:05:23.931Z,27.63
2019-02-06T02:07:53.214Z,26.00
2019-02-06T02:10:22.490Z,25.73
2019-02-06T02:12:51.776Z,25.10
2019-02-06T02:15:21.078Z,25.00
2019-02-06T02:17:50.357Z,22.20
2019-02-06T02:20:21.470Z,24.53
2019-02-06T02:22:50.963Z,23.20
2019-02-06T02:25:20.224Z,24.20
2019-02-06T02:27:49.491Z,24.97
2019-02-06T02:30:23.494Z,23.63
2019-02-06T02:32:53.024Z,23.40
2019-02-06T02:35:22.294Z,24.27
2019-02-06T02:37:51.553Z,22.97
2019-02-06T02:40:20.848Z,22.33
2019-02-06T02:42:50.222Z,21.43
2019-02-06T02:45:20.495Z,21.27
2019-02-06T02:47:49.915Z,21.13
2019-02-06T02:50:19.612Z,21.90
2019-02-06T02:52:48.882Z,22.00
2019-02-06T02:55:18.287Z,23.10
2019-02-06T02:57:47.616Z,21.83
2019-02-06T03:00:19.013Z,21.20
2019-02-06T03:02:59.172Z,19.80
2019-02-06T03:05:30.744Z,21.90
2019-02-06T03:08:00.039Z,20.93
2019-02-06T03:10:29.310Z,22.23
2019-02-06T03:12:58.591Z,22.27
2019-02-06T03:15:27.870Z,21.30
2019-02-06T03:17:57.154Z,22.27
2019-02-06T03:20:26.440Z,20.87
2019-02-06T03:22:55.718Z,20.47
2019-02-06T03:25:24.998Z,22.47
2019-02-06T03:27:54.271Z,22.20
2019-02-06T03:30:23.895Z,21.13
2019-02-06T03:32:53.151Z,22.07
2019-02-06T03:35:22.430Z,22.53
2019-02-06T03:37:51.691Z,20.20
2019-02-06T03:40:20.982Z,20.03
2019-02-06T03:42:50.445Z,19.27
2019-02-06T03:45:19.925Z,17.53
2019-02-06T03:47:49.358Z,19.37
2019-02-06T03:50:19.024Z,18.17
2019-02-06T03:52:48.636Z,20.50
2019-02-06T03:55:17.927Z,18.90
2019-02-06T03:57:47.219Z,18.50
2019-02-06T04:00:16.954Z,18.63
2019-02-06T04:02:46.233Z,18.10
2019-02-06T04:05:15.703Z,18.57
2019-02-06T04:07:45.005Z,19.37
2019-02-06T04:10:15.227Z,16.80
2019-02-06T04:12:45.682Z,16.80
2019-02-06T04:15:15.619Z,18.00
2019-02-06T04:17:44.892Z,20.70
2019-02-06T04:20:14.465Z,18.57
2019-02-06T04:22:43.879Z,20.37
2019-02-06T04:25:14.364Z,19.70
2019-02-06T04:27:43.640Z,19.13
2019-02-06T04:30:14.115Z,19.73
2019-02-06T04:32:43.477Z,21.73
2019-02-06T04:35:13.948Z,20.33
2019-02-06T04:37:43.244Z,19.20
2019-02-06T04:40:15.709Z,17.80
2019-02-06T04:42:45.204Z,17.83
2019-02-06T04:45:16.058Z,19.77
2019-02-06T04:47:45.724Z,19.10
2019-02-06T04:50:15.370Z,19.97
2019-02-06T04:52:44.657Z,20.03
2019-02-06T04:55:15.212Z,20.20
2019-02-06T04:57:44.500Z,19.23
2019-02-06T05:00:17.233Z,21.07
2019-02-06T05:02:46.495Z,20.03
2019-02-06T05:05:15.778Z,19.60
2019-02-06T05:07:45.046Z,19.03
2019-02-06T05:10:14.929Z,20.43
2019-02-06T05:12:44.480Z,19.23
2019-02-06T05:15:14.246Z,18.00
2019-02-06T05:17:43.513Z,19.53
2019-02-06T05:20:27.853Z,21.33
2019-02-06T05:22:57.235Z,18.83
2019-02-06T05:25:26.776Z,19.87
2019-02-06T05:27:56.076Z,20.10
2019-02-06T05:30:25.358Z,21.43
2019-02-06T05:32:54.620Z,20.07
2019-02-06T05:35:24.010Z,19.50
2019-02-06T05:37:53.292Z,19.53
2019-02-06T05:40:22.977Z,21.30
2019-02-06T05:42:53.034Z,20.83
2019-02-06T05:45:22.571Z,20.67
2019-02-06T05:47:51.835Z,18.87
2019-02-06T05:50:21.379Z,17.93
2019-02-06T05:52:50.636Z,19.63
2019-02-06T05:55:21.331Z,18.07
2019-02-06T05:57:53.223Z,20.60
2019-02-06T06:00:28.421Z,18.50
2019-02-06T06:02:58.280Z,18.00
2019-02-06T06:05:28.207Z,19.23
2019-02-06T06:08:00.131Z,19.43
2019-02-06T06:10:31.394Z,20.70
2019-02-06T06:13:01.105Z,20.93
2019-02-06T06:15:30.678Z,19.20
2019-02-06T06:18:00.551Z,19.27
2019-02-06T06:20:30.095Z,21.30
2019-02-06T06:22:59.764Z,20.67
2019-02-06T06:25:30.060Z,22.57
2019-02-06T06:27:59.617Z,22.20
2019-02-06T06:30:29.105Z,21.83
2019-02-06T06:32:58.869Z,22.57
2019-02-06T06:35:28.491Z,20.60
2019-02-06T06:37:59.794Z,19.33
2019-02-06T06:40:31.039Z,21.20
2019-02-06T06:43:00.657Z,20.60
2019-02-06T06:45:30.124Z,20.33
2019-02-06T06:47:59.509Z,20.10
2019-02-06T06:50:29.219Z,20.00
2019-02-06T06:52:58.807Z,20.20
2019-02-06T06:55:28.794Z,19.53
2019-02-06T06:57:59.711Z,19.27
2019-02-06T07:00:30.530Z,21.50
2019-02-06T07:03:00.409Z,17.67
2019-02-06T07:05:29.696Z,21.00
2019-02-06T07:08:09.050Z,19.43
2019-02-06T07:10:29.950Z,20.33
2019-02-06T07:12:59.221Z,19.33
2019-02-06T07:15:30.666Z,18.03
2019-02-06T07:17:59.973Z,20.57
2019-02-06T07:20:29.268Z,19.60
2019-02-06T07:22:58.907Z,20.13
2019-02-06T07:25:28.163Z,20.90
2019-02-06T07:27:57.441Z,19.80
2019-02-06T07:30:32.338Z,21.23
2019-02-06T07:33:02.133Z,20.80
2019-02-06T07:35:31.409Z,20.77
2019-02-06T07:38:01.074Z,21.50
2019-02-06T07:40:30.442Z,22.13
2019-02-06T07:42:59.737Z,21.67
2019-02-06T07:45:29.003Z,20.60
2019-02-06T07:47:58.261Z,21.90
2019-02-06T07:50:29.890Z,19.87
2019-02-06T07:52:59.482Z,21.23
2019-02-06T07:55:28.981Z,20.90
2019-02-06T07:57:58.533Z,22.53
2019-02-06T08:00:27.815Z,23.13
2019-02-06T08:02:57.982Z,22.63
2019-02-06T08:05:27.562Z,21.27
2019-02-06T08:07:57.207Z,22.90
2019-02-06T08:10:31.657Z,21.73
2019-02-06T08:13:01.132Z,24.03
2019-02-06T08:15:30.692Z,21.73
2019-02-06T08:17:59.974Z,20.37
2019-02-06T08:20:29.257Z,20.27
2019-02-06T08:22:58.613Z,19.87
2019-02-06T08:25:27.887Z,21.80
2019-02-06T08:27:57.249Z,20.93
2019-02-06T08:30:28.831Z,21.70
2019-02-06T08:32:58.315Z,22.97
2019-02-06T08:35:27.602Z,20.87
2019-02-06T08:37:56.972Z,20.83
2019-02-06T08:40:27.114Z,20.40
2019-02-06T08:42:56.350Z,22.87
2019-02-06T08:45:25.739Z,21.20
2019-02-06T08:47:55.500Z,21.03
2019-02-06T08:50:25.224Z,21.27
2019-02-06T08:52:54.652Z,20.10
2019-02-06T08:55:29.005Z,21.07
2019-02-06T08:57:58.764Z,19.93
2019-02-06T09:00:34.335Z,18.50
2019-02-06T09:03:03.994Z,21.03
2019-02-06T09:05:33.477Z,19.67
2019-02-06T09:08:02.770Z,19.30
2019-02-06T09:10:32.149Z,21.23
2019-02-06T09:13:01.659Z,19.17
2019-02-06T09:15:30.914Z,20.53
2019-02-06T09:18:00.273Z,19.37
2019-02-06T09:20:30.374Z,20.17
2019-02-06T09:23:00.761Z,18.37
2019-02-06T09:25:30.299Z,18.73
2019-02-06T09:27:59.708Z,20.70
2019-02-06T09:30:30.915Z,19.23
2019-02-06T09:33:00.806Z,21.47
2019-02-06T09:35:30.266Z,20.97
2019-02-06T09:37:59.573Z,22.27
2019-02-06T09:40:30.145Z,21.33
2019-02-06T09:42:59.634Z,20.87
2019-02-06T09:45:29.285Z,18.90
2019-02-06T09:47:58.573Z,18.13
2019-02-06T09:50:30.867Z,19.43
2019-02-06T09:53:00.256Z,20.70
2019-02-06T09:55:29.893Z,19.40
2019-02-06T09:57:59.400Z,20.17
2019-02-06T10:00:31.531Z,20.33
2019-02-06T10:03:01.078Z,21.80
2019-02-06T10:05:30.505Z,21.57
2019-02-06T10:07:59.894Z,20.60
2019-02-06T10:10:29.505Z,21.17
2019-02-06T10:12:58.894Z,20.23
2019-02-06T10:15:30.450Z,19.60
2019-02-06T10:18:01.403Z,20.97
2019-02-06T10:20:39.869Z,20.23
2019-02-06T10:23:10.037Z,19.80
2019-02-06T10:25:39.979Z,20.13
2019-02-06T10:28:09.262Z,19.07
2019-02-06T10:30:41.874Z,19.30
2019-02-06T10:33:11.165Z,21.47
2019-02-06T10:35:40.598Z,19.43
2019-02-06T10:38:10.619Z,20.23
2019-02-06T10:40:40.138Z,18.67
2019-02-06T10:43:09.798Z,18.20
2019-02-06T10:45:39.372Z,18.90
2019-02-06T10:48:09.233Z,20.50
2019-02-06T10:50:44.825Z,19.50
2019-02-06T10:53:14.106Z,18.63
2019-02-06T10:55:43.534Z,18.60
2019-02-06T10:58:12.981Z,18.20
2019-02-06T11:00:48.585Z,20.03
2019-02-06T11:03:18.137Z,19.87
2019-02-06T11:05:47.423Z,20.27
2019-02-06T11:08:16.781Z,21.33
2019-02-06T11:10:46.037Z,26.17
2019-02-06T11:13:15.738Z,20.53
2019-02-06T11:15:44.980Z,20.03
2019-02-06T11:18:14.264Z,20.03
2019-02-06T11:20:43.521Z,21.67
2019-02-06T11:23:13.704Z,22.47
2019-02-06T11:25:42.956Z,21.33
2019-02-06T11:28:12.666Z,23.57
2019-02-06T11:30:41.927Z,21.60
2019-02-06T11:33:11.182Z,22.87
2019-02-06T11:35:40.460Z,21.53
2019-02-06T11:38:09.924Z,22.03
2019-02-06T11:40:39.210Z,22.37
2019-02-06T11:43:08.945Z,22.57
2019-02-06T11:45:38.236Z,22.23
2019-02-06T11:48:07.829Z,22.67
2019-02-06T11:50:44.850Z,21.60
2019-02-06T11:53:19.491Z,22.07
2019-02-06T11:55:49.285Z,22.43
2019-02-06T11:58:18.765Z,20.57
2019-02-06T12:01:19.093Z,22.60
2019-02-06T12:03:49.644Z,22.40
2019-02-06T12:06:18.924Z,21.67
2019-02-06T12:08:48.181Z,21.27
2019-02-06T12:11:17.517Z,22.00
2019-02-06T12:13:46.786Z,22.50
2019-02-06T12:16:16.048Z,20.40
2019-02-06T12:18:45.334Z,20.80
2019-02-06T12:21:17.814Z,19.73
2019-02-06T12:23:45.780Z,22.97
2019-02-06T12:26:15.132Z,23.17
2019-02-06T12:28:44.405Z,23.27
2019-02-06T12:31:14.780Z,23.27
2019-02-06T12:33:44.046Z,23.13
2019-02-06T12:36:15.726Z,22.23
2019-02-06T12:38:53.171Z,23.97
2019-02-06T12:41:15.694Z,23.27
2019-02-06T12:43:44.955Z,22.10
2019-02-06T12:46:14.219Z,21.10
2019-02-06T12:48:43.528Z,20.77
2019-02-06T12:51:12.799Z,23.20
2019-02-06T12:53:42.369Z,22.33
2019-02-06T12:56:11.682Z,21.83
2019-02-06T12:58:41.059Z,23.70
2019-02-06T13:01:10.316Z,23.63
2019-02-06T13:03:39.597Z,23.00
2019-02-06T13:06:08.854Z,22.00
2019-02-06T13:08:38.609Z,23.37
2019-02-06T13:11:07.906Z,21.83
2019-02-06T13:13:37.162Z,22.23
2019-02-06T13:16:06.443Z,22.57
2019-02-06T13:18:35.704Z,23.13
2019-02-06T13:21:05.087Z,20.73
2019-02-06T13:23:34.445Z,20.47
2019-02-06T13:26:03.839Z,21.57
2019-02-06T13:28:33.109Z,21.27
2019-02-06T13:31:02.386Z,20.80
2019-02-06T13:33:31.701Z,20.17
2019-02-06T13:36:00.954Z,18.90
2019-02-06T13:38:30.244Z,20.27
2019-02-06T13:40:59.497Z,20.67
2019-02-06T13:43:28.793Z,20.57
2019-02-06T13:45:58.054Z,20.07
2019-02-06T13:48:27.360Z,19.77
2019-02-06T13:50:56.667Z,19.80
2019-02-06T13:53:25.958Z,19.50
2019-02-06T13:55:55.257Z,18.77
2019-02-06T13:58:24.561Z,18.40
2019-02-06T14:00:53.826Z,19.67
2019-02-06T14:03:23.092Z,18.67
2019-02-06T14:05:52.401Z,18.40
2019-02-06T14:08:21.669Z,18.43
2019-02-06T14:11:00.024Z,17.90
2019-02-06T14:13:21.935Z,17.90
2019-02-06T14:15:51.469Z,17.43
2019-02-06T14:18:20.862Z,16.43
2019-02-06T14:20:54.334Z,17.13
2019-02-06T14:23:34.301Z,17.10
2019-02-06T14:26:18.117Z,16.23
2019-02-06T14:29:36.677Z,16.70
2019-02-06T14:32:55.298Z,16.33
2019-02-06T14:35:49.886Z,15.50
2019-02-06T14:39:12.187Z,16.03
2019-02-06T14:42:19.644Z,14.53
2019-02-06T14:45:43.267Z,17.07
2019-02-06T14:48:33.948Z,16.70
2019-02-06T14:51:16.901Z,13.90
2019-02-06T14:54:16.972Z,15.80
2019-02-06T14:57:16.295Z,16.10
2019-02-06T15:00:27.608Z,15.97
2019-02-06T15:03:43.505Z,14.60
2019-02-06T15:06:44.179Z,15.50
2019-02-06T15:10:13.025Z,15.60
2019-02-06T15:12:53.095Z,16.17
2019-02-06T15:15:50.000Z,16.60
2019-02-06T15:18:44.502Z,16.13
2019-02-06T15:21:57.910Z,14.93
2019-02-06T15:25:01.845Z,17.50
2019-02-06T15:28:24.305Z,17.10
2019-02-06T15:31:33.245Z,16.67
2019-02-06T15:34:36.800Z,17.07
2019-02-06T15:37:33.657Z,17.30
2019-02-06T15:40:34.683Z,16.60
2019-02-06T15:43:41.334Z,16.63
2019-02-06T15:46:42.966Z,17.90
2019-02-06T15:49:38.691Z,17.70
2019-02-06T15:52:45.020Z,17.10
2019-02-06T15:55:40.475Z,17.47
2019-02-06T15:58:38.485Z,16.80
2019-02-06T16:01:39.040Z,17.37
2019-02-06T16:05:22.033Z,19.00
2019-02-06T16:08:18.950Z,17.43
2019-02-06T16:11:42.628Z,19.07
2019-02-06T16:14:36.795Z,17.30
2019-02-06T16:17:46.085Z,20.00
2019-02-06T16:20:40.060Z,17.30
2019-02-06T16:23:47.433Z,19.13
2019-02-06T16:27:22.250Z,17.77
2019-02-06T16:30:25.063Z,19.87
2019-02-06T16:33:31.246Z,18.23
2019-02-06T16:36:15.458Z,18.50
2019-02-06T16:39:20.298Z,18.80
2019-02-06T16:42:32.575Z,18.67
2019-02-06T16:45:37.719Z,19.73
2019-02-06T16:48:32.577Z,18.07
2019-02-06T16:51:34.199Z,19.23
2019-02-06T16:54:50.893Z,21.13
2019-02-06T16:57:39.269Z,17.53
2019-02-06T17:00:59.013Z,18.93
2019-02-06T17:04:18.995Z,20.70
2019-02-06T17:07:13.651Z,21.43
2019-02-06T17:10:21.139Z,21.37
2019-02-06T17:13:55.853Z,23.83
2019-02-06T17:17:17.737Z,19.60
2019-02-06T17:20:08.864Z,20.47
2019-02-06T17:23:05.761Z,20.93
2019-02-06T17:26:21.990Z,22.33
2019-02-06T17:29:39.325Z,23.30
2019-02-06T17:32:50.491Z,19.93
2019-02-06T17:35:33.751Z,22.90
2019-02-06T17:38:37.415Z,23.40
2019-02-06T17:41:45.103Z,23.63
2019-02-06T17:44:39.912Z,23.43
2019-02-06T17:47:50.549Z,23.67
2019-02-06T17:50:46.278Z,22.67
2019-02-06T17:53:43.290Z,23.43
2019-02-06T17:56:12.553Z,21.53
2019-02-06T17:58:44.111Z,22.10
2019-02-06T18:01:17.638Z,23.17
2019-02-06T18:03:51.193Z,24.10
2019-02-06T18:06:20.482Z,22.90
2019-02-06T18:08:56.449Z,23.40
2019-02-06T18:11:20.754Z,23.50
2019-02-06T18:13:50.419Z,26.67
2019-02-06T18:16:21.393Z,22.43
2019-02-06T18:18:50.711Z,23.80
2019-02-06T18:21:20.160Z,22.17
2019-02-06T18:23:49.554Z,24.50
2019-02-06T18:26:19.898Z,24.67
2019-02-06T18:28:49.578Z,24.57
2019-02-06T18:31:19.066Z,24.47
2019-02-06T18:33:48.366Z,24.17
2019-02-06T18:36:17.659Z,23.80
2019-02-06T18:38:48.667Z,23.57
2019-02-06T18:41:17.949Z,24.23
2019-02-06T18:43:47.254Z,24.93
2019-02-06T18:46:16.945Z,23.87
2019-02-06T18:48:46.438Z,24.80
2019-02-06T18:51:15.830Z,23.03
2019-02-06T18:53:45.183Z,25.03
2019-02-06T18:56:14.922Z,25.57
2019-02-06T18:58:44.226Z,23.67
2019-02-06T19:01:13.761Z,24.20
2019-02-06T19:03:45.167Z,24.37
2019-02-06T19:06:14.714Z,23.67
2019-02-06T19:08:44.141Z,23.77
2019-02-06T19:11:13.594Z,23.90
2019-02-06T19:13:42.900Z,23.17
2019-02-06T19:16:12.191Z,23.97
2019-02-06T19:18:42.827Z,23.47
2019-02-06T19:21:12.425Z,25.00
2019-02-06T19:23:42.855Z,24.00
2019-02-06T19:26:12.171Z,21.03
2019-02-06T19:28:41.440Z,22.77
2019-02-06T19:31:10.749Z,22.90
2019-02-06T19:33:40.037Z,23.30
2019-02-06T19:36:09.344Z,23.27
2019-02-06T19:38:38.909Z,23.57
2019-02-06T19:41:08.218Z,22.30
2019-02-06T19:43:37.503Z,22.77
2019-02-06T19:46:06.998Z,22.07
2019-02-06T19:48:36.397Z,20.70
2019-02-06T19:51:05.743Z,22.23
2019-02-06T19:53:35.246Z,21.07
2019-02-06T19:56:06.430Z,21.03
2019-02-06T19:58:35.770Z,22.70
2019-02-06T20:01:05.043Z,23.13
2019-02-06T20:03:34.372Z,21.83
2019-02-06T20:06:05.732Z,21.37
2019-02-06T20:08:35.985Z,21.50
2019-02-06T20:11:08.190Z,21.77
2019-02-06T20:13:37.742Z,22.73
2019-02-06T20:16:07.104Z,23.83
2019-02-06T20:18:36.409Z,24.33
2019-02-06T20:21:06.812Z,24.00
2019-02-06T20:23:36.144Z,23.93
2019-02-06T20:26:05.761Z,24.23
2019-02-06T20:28:35.017Z,21.63
2019-02-06T20:31:04.294Z,22.27
2019-02-06T20:33:33.694Z,21.40
2019-02-06T20:36:04.291Z,21.97
2019-02-06T20:38:34.250Z,21.87
2019-02-06T20:41:03.699Z,20.57
2019-02-06T20:43:33.168Z,23.33
2019-02-06T20:46:02.865Z,23.93
2019-02-06T20:48:32.862Z,21.43
2019-02-06T20:51:02.298Z,20.67
2019-02-06T20:53:33.647Z,20.90
2019-02-06T20:56:02.942Z,22.10
2019-02-06T20:58:32.749Z,21.60
2019-02-06T21:01:02.125Z,18.93
2019-02-06T21:03:31.560Z,18.47
2019-02-06T21:06:00.855Z,20.37
2019-02-06T21:08:30.114Z,20.53
2019-02-06T21:10:59.852Z,20.23
2019-02-06T21:13:33.103Z,19.67
2019-02-06T21:16:02.913Z,18.93
2019-02-06T21:18:34.161Z,19.63
2019-02-06T21:21:09.386Z,19.20
2019-02-06T21:23:40.935Z,22.73
2019-02-06T21:26:12.321Z,18.87
2019-02-06T21:28:44.022Z,19.77
2019-02-06T21:31:15.558Z,19.20
2019-02-06T21:33:48.674Z,19.33
2019-02-06T21:36:20.025Z,19.13
2019-02-06T21:38:51.548Z,17.47
2019-02-06T21:41:22.899Z,19.83
2019-02-06T21:43:54.540Z,20.17
2019-02-06T21:46:26.383Z,21.67
2019-02-06T21:48:56.386Z,19.63
2019-02-06T21:51:27.311Z,18.23
2019-02-06T21:53:57.895Z,19.70
2019-02-06T21:56:29.801Z,18.83
2019-02-06T21:59:01.038Z,18.67
2019-02-06T22:01:31.340Z,19.03
2019-02-06T22:04:01.873Z,17.43
2019-02-06T22:06:32.655Z,20.83
2019-02-06T22:09:04.798Z,18.67
2019-02-06T22:11:36.258Z,20.27
2019-02-06T22:14:07.709Z,19.33
2019-02-06T22:16:37.319Z,18.80
2019-02-06T22:19:06.613Z,19.07
2019-02-06T22:21:36.147Z,18.77
2019-02-06T22:24:08.102Z,19.23
2019-02-06T22:26:37.377Z,20.17
2019-02-06T22:29:06.848Z,20.30
2019-02-06T22:31:36.714Z,19.20
2019-02-06T22:34:06.181Z,19.50
2019-02-06T22:36:35.881Z,19.63
2019-02-06T22:39:10.553Z,20.07
2019-02-06T22:41:40.023Z,20.33
2019-02-06T22:44:09.335Z,21.60
2019-02-06T22:46:38.650Z,20.83
2019-02-06T22:49:07.985Z,20.10
2019-02-06T22:51:37.252Z,19.87
2019-02-06T22:54:06.566Z,19.27
2019-02-06T22:56:36.040Z,21.03
2019-02-06T22:59:05.810Z,20.30
2019-02-06T23:01:42.962Z,19.77
2019-02-06T23:04:12.398Z,19.87
2019-02-06T23:06:41.834Z,19.33
2019-02-06T23:09:11.264Z,19.97
2019-02-06T23:11:40.850Z,18.17
2019-02-06T23:14:17.083Z,18.43
2019-02-06T23:16:41.330Z,19.30
2019-02-06T23:19:10.593Z,20.70
2019-02-06T23:21:40.077Z,19.37
2019-02-06T23:24:09.350Z,19.67
2019-02-06T23:26:38.742Z,22.20
2019-02-06T23:29:08.086Z,19.37
2019-02-06T23:31:37.753Z,19.67
2019-02-06T23:34:07.164Z,22.73
2019-02-06T23:36:36.426Z,21.43
2019-02-06T23:39:13.949Z,19.67
2019-02-06T23:41:43.210Z,19.83
2019-02-06T23:44:12.895Z,18.97
2019-02-06T23:46:42.195Z,19.07
2019-02-06T23:49:11.461Z,18.33
2019-02-06T23:51:40.746Z,19.23
2019-02-06T23:54:10.005Z,18.80
2019-02-06T23:56:39.342Z,20.63
2019-02-06T23:59:09.049Z,20.17
